sensor_id;sensor_type;location;lat;lon;timestamp;pressure;altitude;pressure_sealevel;temperature;humidity
36378;BME280;22402;42.746;23.606;2023-06-22T00:01:27;93903.31;;;18.16;96.53
36378;BME280;22402;42.746;23.606;2023-06-22T00:03:53;93903.97;;;18.18;96.53
36378;BME280;22402;42.746;23.606;2023-06-22T00:06:19;93902.97;;;18.19;96.43
36378;BME280;22402;42.746;23.606;2023-06-22T00:08:44;93903.78;;;18.20;96.25
36378;BME280;22402;42.746;23.606;2023-06-22T00:11:10;93909.06;;;18.20;96.44
36378;BME280;22402;42.746;23.606;2023-06-22T00:13:35;93909.41;;;18.17;96.39
36378;BME280;22402;42.746;23.606;2023-06-22T00:16:01;93913.06;;;18.16;96.56
36378;BME280;22402;42.746;23.606;2023-06-22T00:18:26;93911.06;;;18.18;96.55
36378;BME280;22402;42.746;23.606;2023-06-22T00:20:54;93911.44;;;18.15;96.38
36378;BME280;22402;42.746;23.606;2023-06-22T00:23:23;93906.16;;;18.15;96.49
36378;BME280;22402;42.746;23.606;2023-06-22T00:25:49;93907.78;;;18.16;96.52
36378;BME280;22402;42.746;23.606;2023-06-22T00:28:14;93902.50;;;18.16;96.59
36378;BME280;22402;42.746;23.606;2023-06-22T00:30:40;93892.97;;;18.15;96.49
36378;BME280;22402;42.746;23.606;2023-06-22T00:33:06;93898.25;;;18.15;96.51
36378;BME280;22402;42.746;23.606;2023-06-22T00:35:32;93899.06;;;18.15;96.49
36378;BME280;22402;42.746;23.606;2023-06-22T00:37:59;93898.03;;;18.16;97.25
36378;BME280;22402;42.746;23.606;2023-06-22T00:40:30;93893.94;;;18.14;98.00
36378;BME280;22402;42.746;23.606;2023-06-22T00:42:56;93903.69;;;18.13;98.22
36378;BME280;22402;42.746;23.606;2023-06-22T00:45:24;93906.88;;;18.09;99.23
36378;BME280;22402;42.746;23.606;2023-06-22T00:47:55;93909.03;;;18.05;99.28
36378;BME280;22402;42.746;23.606;2023-06-22T00:50:22;93898.19;;;18.00;99.49
36378;BME280;22402;42.746;23.606;2023-06-22T00:52:52;93897.72;;;17.96;99.63
36378;BME280;22402;42.746;23.606;2023-06-22T00:55:22;93907.00;;;17.92;99.61
36378;BME280;22402;42.746;23.606;2023-06-22T00:57:48;93907.34;;;17.89;100.00
36378;BME280;22402;42.746;23.606;2023-06-22T01:00:15;93889.44;;;17.85;100.00
36378;BME280;22402;42.746;23.606;2023-06-22T01:02:45;93896.03;;;17.81;100.00
36378;BME280;22402;42.746;23.606;2023-06-22T01:05:14;93904.78;;;17.81;100.00
36378;BME280;22402;42.746;23.606;2023-06-22T01:10:32;93898.19;;;17.77;100.00
36378;BME280;22402;42.746;23.606;2023-06-22T01:16:11;93891.63;;;17.73;100.00
36378;BME280;22402;42.746;23.606;2023-06-22T01:18:42;93885.53;;;17.72;100.00
36378;BME280;22402;42.746;23.606;2023-06-22T01:21:11;93891.16;;;17.69;100.00
36378;BME280;22402;42.746;23.606;2023-06-22T01:29:12;93889.00;;;17.73;100.00
36378;BME280;22402;42.746;23.606;2023-06-22T01:31:39;93885.84;;;17.77;100.00
36378;BME280;22402;42.746;23.606;2023-06-22T01:34:06;93884.34;;;17.75;100.00
36378;BME280;22402;42.746;23.606;2023-06-22T01:36:34;93889.47;;;17.76;99.96
36378;BME280;22402;42.746;23.606;2023-06-22T01:39:02;93901.00;;;17.75;100.00
36378;BME280;22402;42.746;23.606;2023-06-22T01:41:30;93894.91;;;17.75;100.00
36378;BME280;22402;42.746;23.606;2023-06-22T01:43:56;93896.72;;;17.74;100.00
36378;BME280;22402;42.746;23.606;2023-06-22T01:46:22;93902.34;;;17.71;100.00
36378;BME280;22402;42.746;23.606;2023-06-22T01:48:50;93897.31;;;17.62;100.00
36378;BME280;22402;42.746;23.606;2023-06-22T01:51:16;93907.22;;;17.60;100.00
36378;BME280;22402;42.746;23.606;2023-06-22T01:53:42;93897.22;;;17.55;100.00
36378;BME280;22402;42.746;23.606;2023-06-22T01:56:08;93903.09;;;17.57;100.00
36378;BME280;22402;42.746;23.606;2023-06-22T01:58:33;93912.38;;;17.53;100.00
36378;BME280;22402;42.746;23.606;2023-06-22T02:01:10;93915.16;;;17.51;100.00
36378;BME280;22402;42.746;23.606;2023-06-22T02:03:50;93910.91;;;17.50;100.00
36378;BME280;22402;42.746;23.606;2023-06-22T02:06:24;93906.28;;;17.52;100.00
36378;BME280;22402;42.746;23.606;2023-06-22T02:09:04;93904.63;;;17.51;100.00
36378;BME280;22402;42.746;23.606;2023-06-22T02:11:31;93908.91;;;17.52;100.00
36378;BME280;22402;42.746;23.606;2023-06-22T02:13:58;93913.38;;;17.52;100.00
36378;BME280;22402;42.746;23.606;2023-06-22T02:16:25;93919.94;;;17.56;100.00
36378;BME280;22402;42.746;23.606;2023-06-22T02:18:55;93914.47;;;17.58;100.00
36378;BME280;22402;42.746;23.606;2023-06-22T02:21:22;93912.47;;;17.60;100.00
36378;BME280;22402;42.746;23.606;2023-06-22T02:23:47;93909.06;;;17.51;100.00
36378;BME280;22402;42.746;23.606;2023-06-22T02:26:15;93908.78;;;17.46;100.00
36378;BME280;22402;42.746;23.606;2023-06-22T02:28:41;93909.31;;;17.41;100.00
36378;BME280;22402;42.746;23.606;2023-06-22T02:31:06;93910.47;;;17.39;100.00
36378;BME280;22402;42.746;23.606;2023-06-22T02:33:32;93909.66;;;17.38;100.00
36378;BME280;22402;42.746;23.606;2023-06-22T02:35:57;93910.00;;;17.35;100.00
36378;BME280;22402;42.746;23.606;2023-06-22T02:38:23;93910.72;;;17.29;100.00
36378;BME280;22402;42.746;23.606;2023-06-22T02:40:49;93915.84;;;17.22;100.00
36378;BME280;22402;42.746;23.606;2023-06-22T02:43:15;93904.47;;;17.22;100.00
36378;BME280;22402;42.746;23.606;2023-06-22T02:48:19;93910.44;;;17.16;100.00
36378;BME280;22402;42.746;23.606;2023-06-22T02:50:47;93912.59;;;17.12;100.00
36378;BME280;22402;42.746;23.606;2023-06-22T02:53:12;93918.06;;;17.11;100.00
36378;BME280;22402;42.746;23.606;2023-06-22T02:55:38;93909.50;;;17.08;100.00
36378;BME280;22402;42.746;23.606;2023-06-22T02:58:05;93915.13;;;17.05;100.00
36378;BME280;22402;42.746;23.606;2023-06-22T03:00:31;93921.38;;;17.04;100.00
36378;BME280;22402;42.746;23.606;2023-06-22T03:02:57;93923.34;;;17.02;100.00
36378;BME280;22402;42.746;23.606;2023-06-22T03:05:23;93936.06;;;16.99;100.00
36378;BME280;22402;42.746;23.606;2023-06-22T03:07:50;93945.44;;;17.01;100.00
36378;BME280;22402;42.746;23.606;2023-06-22T03:10:16;93943.78;;;17.00;100.00
36378;BME280;22402;42.746;23.606;2023-06-22T03:12:42;93950.69;;;17.01;100.00
36378;BME280;22402;42.746;23.606;2023-06-22T03:15:10;93949.03;;;17.00;100.00
36378;BME280;22402;42.746;23.606;2023-06-22T03:17:37;93938.03;;;16.97;100.00
36378;BME280;22402;42.746;23.606;2023-06-22T03:22:41;93931.59;;;16.99;100.00
36378;BME280;22402;42.746;23.606;2023-06-22T03:25:08;93929.63;;;17.01;100.00
36378;BME280;22402;42.746;23.606;2023-06-22T03:27:39;93924.03;;;17.04;100.00
36378;BME280;22402;42.746;23.606;2023-06-22T03:30:07;93927.75;;;17.10;100.00
36378;BME280;22402;42.746;23.606;2023-06-22T03:32:33;93936.50;;;17.11;100.00
36378;BME280;22402;42.746;23.606;2023-06-22T03:34:59;93932.69;;;17.13;100.00
36378;BME280;22402;42.746;23.606;2023-06-22T03:37:26;93934.34;;;17.14;100.00
36378;BME280;22402;42.746;23.606;2023-06-22T03:39:52;93941.72;;;17.19;100.00
36378;BME280;22402;42.746;23.606;2023-06-22T03:42:17;93946.63;;;17.22;100.00
36378;BME280;22402;42.746;23.606;2023-06-22T03:44:43;93948.41;;;17.29;100.00
36378;BME280;22402;42.746;23.606;2023-06-22T03:47:09;93948.53;;;17.36;100.00
36378;BME280;22402;42.746;23.606;2023-06-22T03:49:35;93944.22;;;17.43;100.00
36378;BME280;22402;42.746;23.606;2023-06-22T03:52:01;93951.09;;;17.52;100.00
36378;BME280;22402;42.746;23.606;2023-06-22T03:54:31;93950.69;;;17.64;100.00
36378;BME280;22402;42.746;23.606;2023-06-22T03:56:57;93953.25;;;17.72;100.00
36378;BME280;22402;42.746;23.606;2023-06-22T03:59:23;93948.28;;;17.85;100.00
36378;BME280;22402;42.746;23.606;2023-06-22T04:01:49;93954.47;;;17.92;100.00
36378;BME280;22402;42.746;23.606;2023-06-22T04:04:16;93951.44;;;18.04;100.00
36378;BME280;22402;42.746;23.606;2023-06-22T04:06:41;93955.28;;;18.16;100.00
36378;BME280;22402;42.746;23.606;2023-06-22T04:09:07;93954.22;;;18.25;100.00
36378;BME280;22402;42.746;23.606;2023-06-22T04:11:32;93951.31;;;18.35;100.00
36378;BME280;22402;42.746;23.606;2023-06-22T04:13:57;93964.28;;;18.44;100.00
36378;BME280;22402;42.746;23.606;2023-06-22T04:16:23;93959.25;;;18.50;100.00
36378;BME280;22402;42.746;23.606;2023-06-22T04:18:48;93951.63;;;18.55;100.00
36378;BME280;22402;42.746;23.606;2023-06-22T04:21:14;93955.72;;;18.57;100.00
36378;BME280;22402;42.746;23.606;2023-06-22T04:23:39;93955.53;;;18.59;100.00
36378;BME280;22402;42.746;23.606;2023-06-22T04:26:05;93950.25;;;18.59;100.00
36378;BME280;22402;42.746;23.606;2023-06-22T04:28:30;93948.25;;;18.61;100.00
36378;BME280;22402;42.746;23.606;2023-06-22T04:31:03;93950.72;;;18.62;100.00
36378;BME280;22402;42.746;23.606;2023-06-22T04:33:28;93951.19;;;18.66;100.00
36378;BME280;22402;42.746;23.606;2023-06-22T04:35:54;93951.28;;;18.73;100.00
36378;BME280;22402;42.746;23.606;2023-06-22T04:38:22;93944.84;;;18.75;100.00
36378;BME280;22402;42.746;23.606;2023-06-22T04:40:48;93950.41;;;18.80;100.00
36378;BME280;22402;42.746;23.606;2023-06-22T04:43:14;93954.75;;;18.88;100.00
36378;BME280;22402;42.746;23.606;2023-06-22T04:45:40;93958.34;;;18.95;100.00
36378;BME280;22402;42.746;23.606;2023-06-22T04:48:06;93953.13;;;19.02;100.00
36378;BME280;22402;42.746;23.606;2023-06-22T04:50:31;93952.38;;;19.08;100.00
36378;BME280;22402;42.746;23.606;2023-06-22T04:52:57;93955.94;;;19.15;100.00
36378;BME280;22402;42.746;23.606;2023-06-22T04:55:23;93950.75;;;19.22;100.00
36378;BME280;22402;42.746;23.606;2023-06-22T04:57:51;93953.91;;;19.32;100.00
36378;BME280;22402;42.746;23.606;2023-06-22T05:00:20;93958.28;;;19.40;100.00
36378;BME280;22402;42.746;23.606;2023-06-22T05:02:48;93957.41;;;19.54;100.00
36378;BME280;22402;42.746;23.606;2023-06-22T05:05:14;93966.91;;;19.63;100.00
36378;BME280;22402;42.746;23.606;2023-06-22T05:07:45;93966.78;;;19.71;100.00
36378;BME280;22402;42.746;23.606;2023-06-22T05:10:12;93968.13;;;19.82;100.00
36378;BME280;22402;42.746;23.606;2023-06-22T05:12:39;93965.59;;;19.95;100.00
36378;BME280;22402;42.746;23.606;2023-06-22T05:15:06;93969.00;;;20.11;100.00
36378;BME280;22402;42.746;23.606;2023-06-22T05:17:32;93967.56;;;20.30;100.00
36378;BME280;22402;42.746;23.606;2023-06-22T05:19:57;93971.38;;;20.48;100.00
36378;BME280;22402;42.746;23.606;2023-06-22T05:22:23;93973.81;;;20.71;100.00
36378;BME280;22402;42.746;23.606;2023-06-22T05:24:48;93967.47;;;20.94;100.00
36378;BME280;22402;42.746;23.606;2023-06-22T05:27:14;93967.16;;;21.17;99.59
36378;BME280;22402;42.746;23.606;2023-06-22T05:29:40;93974.44;;;21.36;98.84
36378;BME280;22402;42.746;23.606;2023-06-22T05:32:06;93979.78;;;21.56;97.93
36378;BME280;22402;42.746;23.606;2023-06-22T05:34:31;93979.03;;;21.69;96.62
36378;BME280;22402;42.746;23.606;2023-06-22T05:36:59;93986.63;;;21.85;95.83
36378;BME280;22402;42.746;23.606;2023-06-22T05:39:25;93976.88;;;21.99;95.52
36378;BME280;22402;42.746;23.606;2023-06-22T05:41:51;93974.03;;;22.14;94.71
36378;BME280;22402;42.746;23.606;2023-06-22T05:44:17;93975.72;;;22.28;93.99
36378;BME280;22402;42.746;23.606;2023-06-22T05:46:43;93974.50;;;22.44;93.09
36378;BME280;22402;42.746;23.606;2023-06-22T05:49:14;93984.75;;;22.61;92.51
36378;BME280;22402;42.746;23.606;2023-06-22T05:51:40;93979.00;;;22.77;92.00
36378;BME280;22402;42.746;23.606;2023-06-22T05:54:06;93984.91;;;22.92;91.02
36378;BME280;22402;42.746;23.606;2023-06-22T05:56:33;93983.09;;;23.06;90.52
36378;BME280;22402;42.746;23.606;2023-06-22T05:58:58;93988.78;;;23.23;90.13
36378;BME280;22402;42.746;23.606;2023-06-22T06:01:24;93987.09;;;23.35;89.25
36378;BME280;22402;42.746;23.606;2023-06-22T06:03:51;93987.88;;;23.49;88.46
36378;BME280;22402;42.746;23.606;2023-06-22T06:06:18;93983.31;;;23.63;87.99
36378;BME280;22402;42.746;23.606;2023-06-22T06:08:45;93986.97;;;23.75;87.18
36378;BME280;22402;42.746;23.606;2023-06-22T06:11:11;93981.59;;;23.88;86.37
36378;BME280;22402;42.746;23.606;2023-06-22T06:13:36;93981.94;;;23.99;85.18
36378;BME280;22402;42.746;23.606;2023-06-22T06:16:02;93984.50;;;24.12;84.37
36378;BME280;22402;42.746;23.606;2023-06-22T06:18:27;93985.94;;;24.21;83.87
36378;BME280;22402;42.746;23.606;2023-06-22T06:20:53;93985.81;;;24.34;82.80
36378;BME280;22402;42.746;23.606;2023-06-22T06:23:18;93980.84;;;24.45;82.34
36378;BME280;22402;42.746;23.606;2023-06-22T06:25:43;93984.69;;;24.55;81.08
36378;BME280;22402;42.746;23.606;2023-06-22T06:28:09;93979.09;;;24.64;80.50
36378;BME280;22402;42.746;23.606;2023-06-22T06:30:34;93977.97;;;24.71;80.20
36378;BME280;22402;42.746;23.606;2023-06-22T06:33:02;93982.41;;;24.84;80.28
36378;BME280;22402;42.746;23.606;2023-06-22T06:35:28;93982.63;;;25.01;79.15
36378;BME280;22402;42.746;23.606;2023-06-22T06:37:54;93986.84;;;25.15;78.23
36378;BME280;22402;42.746;23.606;2023-06-22T06:40:20;93977.06;;;25.28;77.18
36378;BME280;22402;42.746;23.606;2023-06-22T06:42:47;93982.41;;;25.46;76.52
36378;BME280;22402;42.746;23.606;2023-06-22T06:45:18;93987.50;;;25.66;76.36
36378;BME280;22402;42.746;23.606;2023-06-22T06:47:44;93978.50;;;25.85;75.59
36378;BME280;22402;42.746;23.606;2023-06-22T06:50:10;93978.81;;;26.07;75.05
36378;BME280;22402;42.746;23.606;2023-06-22T06:52:36;93979.69;;;26.31;74.62
36378;BME280;22402;42.746;23.606;2023-06-22T06:55:02;93975.25;;;26.55;73.73
36378;BME280;22402;42.746;23.606;2023-06-22T06:57:30;93971.53;;;26.80;71.88
36378;BME280;22402;42.746;23.606;2023-06-22T06:59:56;93972.75;;;27.08;71.34
36378;BME280;22402;42.746;23.606;2023-06-22T07:02:23;93969.16;;;27.37;70.90
36378;BME280;22402;42.746;23.606;2023-06-22T07:04:49;93967.09;;;27.68;69.08
36378;BME280;22402;42.746;23.606;2023-06-22T07:07:14;93965.28;;;27.97;68.06
36378;BME280;22402;42.746;23.606;2023-06-22T07:09:43;93960.47;;;28.28;67.49
36378;BME280;22402;42.746;23.606;2023-06-22T07:12:08;93962.69;;;28.59;66.80
36378;BME280;22402;42.746;23.606;2023-06-22T07:14:34;93959.56;;;28.84;66.07
36378;BME280;22402;42.746;23.606;2023-06-22T07:16:59;93964.06;;;28.96;66.13
36378;BME280;22402;42.746;23.606;2023-06-22T07:19:25;93962.94;;;28.92;65.87
36378;BME280;22402;42.746;23.606;2023-06-22T07:21:52;93959.53;;;28.79;66.01
36378;BME280;22402;42.746;23.606;2023-06-22T07:24:19;93961.94;;;28.64;66.25
36378;BME280;22402;42.746;23.606;2023-06-22T07:26:47;93973.09;;;28.56;66.28
36378;BME280;22402;42.746;23.606;2023-06-22T07:29:13;93970.47;;;28.61;66.09
36378;BME280;22402;42.746;23.606;2023-06-22T07:31:39;93964.06;;;28.62;67.01
36378;BME280;22402;42.746;23.606;2023-06-22T07:34:06;93972.84;;;28.74;67.02
36378;BME280;22402;42.746;23.606;2023-06-22T07:36:32;93968.25;;;29.03;66.44
36378;BME280;22402;42.746;23.606;2023-06-22T07:38:57;93974.91;;;29.40;65.21
36378;BME280;22402;42.746;23.606;2023-06-22T07:41:23;93974.72;;;29.63;64.07
36378;BME280;22402;42.746;23.606;2023-06-22T07:43:48;93964.38;;;29.55;64.24
36378;BME280;22402;42.746;23.606;2023-06-22T07:46:15;93967.66;;;29.18;64.67
36378;BME280;22402;42.746;23.606;2023-06-22T07:48:40;93965.25;;;28.88;66.50
36378;BME280;22402;42.746;23.606;2023-06-22T07:51:07;93967.22;;;28.76;67.06
36378;BME280;22402;42.746;23.606;2023-06-22T07:53:33;93958.84;;;28.72;66.52
36378;BME280;22402;42.746;23.606;2023-06-22T07:55:58;93959.75;;;28.61;67.03
36378;BME280;22402;42.746;23.606;2023-06-22T07:58:24;93968.53;;;28.56;67.75
36378;BME280;22402;42.746;23.606;2023-06-22T08:00:49;93961.38;;;28.96;67.35
36378;BME280;22402;42.746;23.606;2023-06-22T08:03:15;93959.16;;;29.87;64.87
36378;BME280;22402;42.746;23.606;2023-06-22T08:05:41;93961.03;;;30.95;61.22
36378;BME280;22402;42.746;23.606;2023-06-22T08:08:06;93958.94;;;31.97;58.18
36378;BME280;22402;42.746;23.606;2023-06-22T08:10:32;93958.84;;;32.81;54.81
36378;BME280;22402;42.746;23.606;2023-06-22T08:12:58;93959.88;;;33.67;52.73
36378;BME280;22402;42.746;23.606;2023-06-22T08:15:25;93957.19;;;34.26;51.35
36378;BME280;22402;42.746;23.606;2023-06-22T08:17:51;93954.75;;;34.75;49.87
36378;BME280;22402;42.746;23.606;2023-06-22T08:20:17;93947.44;;;35.09;49.25
36378;BME280;22402;42.746;23.606;2023-06-22T08:22:43;93945.53;;;35.39;48.46
36378;BME280;22402;42.746;23.606;2023-06-22T08:25:09;93940.91;;;35.69;47.44
36378;BME280;22402;42.746;23.606;2023-06-22T08:27:35;93937.84;;;35.99;46.81
36378;BME280;22402;42.746;23.606;2023-06-22T08:30:01;93946.97;;;36.09;45.79
36378;BME280;22402;42.746;23.606;2023-06-22T08:32:28;93944.19;;;35.90;46.47
36378;BME280;22402;42.746;23.606;2023-06-22T08:34:57;93943.75;;;36.01;46.01
36378;BME280;22402;42.746;23.606;2023-06-22T08:37:23;93938.25;;;36.31;45.73
36378;BME280;22402;42.746;23.606;2023-06-22T08:39:50;93935.84;;;36.67;45.13
36378;BME280;22402;42.746;23.606;2023-06-22T08:42:15;93938.09;;;36.98;43.92
36378;BME280;22402;42.746;23.606;2023-06-22T08:44:41;93938.66;;;37.27;43.47
36378;BME280;22402;42.746;23.606;2023-06-22T08:47:07;93941.75;;;37.53;43.46
36378;BME280;22402;42.746;23.606;2023-06-22T08:49:32;93944.69;;;37.84;42.47
36378;BME280;22402;42.746;23.606;2023-06-22T08:51:57;93937.41;;;38.21;41.82
36378;BME280;22402;42.746;23.606;2023-06-22T08:54:23;93944.94;;;38.52;41.27
36378;BME280;22402;42.746;23.606;2023-06-22T08:56:48;93940.22;;;38.80;40.31
36378;BME280;22402;42.746;23.606;2023-06-22T08:59:14;93931.56;;;39.01;39.05
36378;BME280;22402;42.746;23.606;2023-06-22T09:01:39;93931.97;;;39.16;38.67
36378;BME280;22402;42.746;23.606;2023-06-22T09:04:05;93929.88;;;39.36;38.42
36378;BME280;22402;42.746;23.606;2023-06-22T09:06:32;93934.34;;;39.63;37.40
36378;BME280;22402;42.746;23.606;2023-06-22T09:08:58;93931.72;;;39.89;36.74
36378;BME280;22402;42.746;23.606;2023-06-22T09:11:26;93928.88;;;40.12;36.90
36378;BME280;22402;42.746;23.606;2023-06-22T09:13:52;93935.38;;;40.33;36.61
36378;BME280;22402;42.746;23.606;2023-06-22T09:16:19;93929.28;;;40.53;36.12
36378;BME280;22402;42.746;23.606;2023-06-22T09:18:47;93925.16;;;40.73;34.73
36378;BME280;22402;42.746;23.606;2023-06-22T09:21:13;93927.53;;;40.84;32.83
36378;BME280;22402;42.746;23.606;2023-06-22T09:23:38;93931.72;;;40.90;33.30
36378;BME280;22402;42.746;23.606;2023-06-22T09:26:05;93933.81;;;41.10;33.91
36378;BME280;22402;42.746;23.606;2023-06-22T09:28:31;93927.16;;;41.29;33.02
36378;BME280;22402;42.746;23.606;2023-06-22T09:30:56;93931.50;;;41.56;33.18
36378;BME280;22402;42.746;23.606;2023-06-22T09:33:25;93927.97;;;41.85;32.94
36378;BME280;22402;42.746;23.606;2023-06-22T09:35:50;93922.44;;;42.02;32.10
36378;BME280;22402;42.746;23.606;2023-06-22T09:38:16;93922.56;;;42.06;31.68
36378;BME280;22402;42.746;23.606;2023-06-22T09:40:42;93928.78;;;42.15;31.43
36378;BME280;22402;42.746;23.606;2023-06-22T09:43:07;93930.00;;;42.35;31.35
36378;BME280;22402;42.746;23.606;2023-06-22T09:45:33;93930.88;;;42.48;31.40
36378;BME280;22402;42.746;23.606;2023-06-22T09:47:58;93926.59;;;42.59;31.48
36378;BME280;22402;42.746;23.606;2023-06-22T10:03:57;93912.72;;;43.64;28.35
36378;BME280;22402;42.746;23.606;2023-06-22T10:06:23;93910.69;;;43.85;27.93
36378;BME280;22402;42.746;23.606;2023-06-22T10:08:51;93912.09;;;44.04;27.33
36378;BME280;22402;42.746;23.606;2023-06-22T10:11:16;93906.38;;;44.33;27.45
36378;BME280;22402;42.746;23.606;2023-06-22T10:13:42;93905.09;;;44.43;26.87
36378;BME280;22402;42.746;23.606;2023-06-22T10:16:07;93910.25;;;44.45;26.17
36378;BME280;22402;42.746;23.606;2023-06-22T10:18:32;93905.41;;;44.54;26.96
36378;BME280;22402;42.746;23.606;2023-06-22T10:20:58;93903.91;;;44.56;26.96
36378;BME280;22402;42.746;23.606;2023-06-22T10:23:23;93901.81;;;44.66;26.80
36378;BME280;22402;42.746;23.606;2023-06-22T10:25:49;93904.66;;;44.82;26.99
36378;BME280;22402;42.746;23.606;2023-06-22T10:28:15;93900.97;;;44.90;26.33
36378;BME280;22402;42.746;23.606;2023-06-22T10:30:41;93903.56;;;44.98;26.42
36378;BME280;22402;42.746;23.606;2023-06-22T10:33:07;93903.97;;;45.13;26.34
36378;BME280;22402;42.746;23.606;2023-06-22T10:35:33;93897.09;;;45.07;26.38
36378;BME280;22402;42.746;23.606;2023-06-22T10:37:59;93900.66;;;45.07;25.49
36378;BME280;22402;42.746;23.606;2023-06-22T10:40:24;93890.75;;;45.18;25.51
36378;BME280;22402;42.746;23.606;2023-06-22T10:42:49;93889.34;;;45.24;25.53
36378;BME280;22402;42.746;23.606;2023-06-22T10:45:15;93894.41;;;45.38;25.35
36378;BME280;22402;42.746;23.606;2023-06-22T10:47:41;93895.69;;;45.57;25.39
36378;BME280;22402;42.746;23.606;2023-06-22T10:50:10;93889.47;;;45.60;25.15
36378;BME280;22402;42.746;23.606;2023-06-22T10:52:35;93887.50;;;45.44;25.48
36378;BME280;22402;42.746;23.606;2023-06-22T10:55:02;93893.72;;;45.41;25.90
36378;BME280;22402;42.746;23.606;2023-06-22T10:57:27;93889.72;;;45.23;26.29
36378;BME280;22402;42.746;23.606;2023-06-22T10:59:53;93888.94;;;44.82;26.41
36378;BME280;22402;42.746;23.606;2023-06-22T11:02:18;93887.91;;;44.46;26.69
36378;BME280;22402;42.746;23.606;2023-06-22T11:04:43;93881.00;;;43.30;27.36
36378;BME280;22402;42.746;23.606;2023-06-22T11:07:09;93880.31;;;41.86;29.56
36378;BME280;22402;42.746;23.606;2023-06-22T11:09:35;93878.53;;;40.70;30.69
36378;BME280;22402;42.746;23.606;2023-06-22T11:12:00;93877.00;;;39.54;32.13
36378;BME280;22402;42.746;23.606;2023-06-22T11:14:26;93883.22;;;38.47;34.32
36378;BME280;22402;42.746;23.606;2023-06-22T11:16:51;93881.72;;;37.50;35.52
36378;BME280;22402;42.746;23.606;2023-06-22T11:19:17;93880.78;;;36.61;37.96
36378;BME280;22402;42.746;23.606;2023-06-22T11:21:42;93875.97;;;35.77;39.87
36378;BME280;22402;42.746;23.606;2023-06-22T11:24:08;93878.69;;;35.00;41.75
36378;BME280;22402;42.746;23.606;2023-06-22T11:26:33;93879.25;;;34.29;43.62
36378;BME280;22402;42.746;23.606;2023-06-22T11:28:59;93874.91;;;33.88;44.34
36378;BME280;22402;42.746;23.606;2023-06-22T11:31:25;93866.03;;;34.61;45.00
36378;BME280;22402;42.746;23.606;2023-06-22T11:33:50;93866.72;;;36.40;40.11
36378;BME280;22402;42.746;23.606;2023-06-22T11:36:16;93866.44;;;38.32;35.21
36378;BME280;22402;42.746;23.606;2023-06-22T11:38:42;93871.25;;;39.64;33.11
36378;BME280;22402;42.746;23.606;2023-06-22T11:41:09;93869.16;;;39.61;33.38
36378;BME280;22402;42.746;23.606;2023-06-22T11:43:35;93862.63;;;39.00;34.65
36378;BME280;22402;42.746;23.606;2023-06-22T11:46:02;93866.06;;;38.69;35.30
36378;BME280;22402;42.746;23.606;2023-06-22T11:48:28;93862.94;;;38.17;35.74
36378;BME280;22402;42.746;23.606;2023-06-22T11:50:53;93870.91;;;37.45;37.46
36378;BME280;22402;42.746;23.606;2023-06-22T11:53:20;93867.81;;;36.58;38.30
36378;BME280;22402;42.746;23.606;2023-06-22T11:55:47;93858.91;;;35.77;40.10
36378;BME280;22402;42.746;23.606;2023-06-22T11:58:12;93862.44;;;35.00;42.38
36378;BME280;22402;42.746;23.606;2023-06-22T12:00:38;93869.81;;;34.26;44.78
36378;BME280;22402;42.746;23.606;2023-06-22T12:03:03;93868.84;;;33.47;46.75
36378;BME280;22402;42.746;23.606;2023-06-22T12:05:29;93879.78;;;32.55;49.44
36378;BME280;22402;42.746;23.606;2023-06-22T12:07:55;93870.94;;;31.71;54.02
36378;BME280;22402;42.746;23.606;2023-06-22T12:10:25;93870.41;;;31.06;59.90
36378;BME280;22402;42.746;23.606;2023-06-22T12:12:51;93867.19;;;30.72;64.46
36378;BME280;22402;42.746;23.606;2023-06-22T12:15:17;93872.97;;;31.33;64.31
36378;BME280;22402;42.746;23.606;2023-06-22T12:17:42;93874.94;;;32.72;58.94
36378;BME280;22402;42.746;23.606;2023-06-22T12:20:08;93868.88;;;34.07;52.54
36378;BME280;22402;42.746;23.606;2023-06-22T12:22:34;93868.38;;;35.07;49.80
36378;BME280;22402;42.746;23.606;2023-06-22T12:25:01;93877.94;;;35.72;46.74
36378;BME280;22402;42.746;23.606;2023-06-22T12:27:26;93879.06;;;35.71;45.49
36378;BME280;22402;42.746;23.606;2023-06-22T12:29:52;93876.56;;;35.50;44.15
36378;BME280;22402;42.746;23.606;2023-06-22T12:32:17;93881.41;;;35.53;43.37
36378;BME280;22402;42.746;23.606;2023-06-22T12:34:43;93872.59;;;36.10;42.77
36378;BME280;22402;42.746;23.606;2023-06-22T12:37:09;93874.81;;;37.11;40.79
36378;BME280;22402;42.746;23.606;2023-06-22T12:39:35;93868.31;;;37.95;39.76
36378;BME280;22402;42.746;23.606;2023-06-22T12:42:00;93872.44;;;38.06;39.75
36378;BME280;22402;42.746;23.606;2023-06-22T12:44:26;93860.19;;;37.67;39.60
36378;BME280;22402;42.746;23.606;2023-06-22T12:46:51;93855.41;;;37.04;39.52
36378;BME280;22402;42.746;23.606;2023-06-22T12:49:17;93857.75;;;36.40;41.26
36378;BME280;22402;42.746;23.606;2023-06-22T12:51:44;93851.72;;;35.86;42.41
36378;BME280;22402;42.746;23.606;2023-06-22T12:54:10;93862.66;;;35.33;43.54
36378;BME280;22402;42.746;23.606;2023-06-22T12:56:37;93856.81;;;34.62;44.09
36378;BME280;22402;42.746;23.606;2023-06-22T12:59:04;93855.75;;;33.79;45.29
36378;BME280;22402;42.746;23.606;2023-06-22T13:01:29;93862.47;;;32.97;46.33
36378;BME280;22402;42.746;23.606;2023-06-22T13:03:56;93864.09;;;32.31;47.60
36378;BME280;22402;42.746;23.606;2023-06-22T13:06:21;93864.53;;;31.87;49.83
36378;BME280;22402;42.746;23.606;2023-06-22T13:08:47;93857.44;;;31.50;51.37
36378;BME280;22402;42.746;23.606;2023-06-22T13:11:13;93867.22;;;31.19;52.56
36378;BME280;22402;42.746;23.606;2023-06-22T13:13:39;93865.19;;;30.89;53.67